Time;durP1;ratioP1;P1;durP2;ratioP2;P2;SDS_P1;SDS_P2;PMS_P1;PMS_P2;Temp;Humidity;BMP_temperature;BMP_pressure;BME280_temperature;BME280_humidity;BME280_pressure;Samples;Min_cycle;Max_cycle;Signal;HPM_P1;HPM_P2
2021/12/28 00:00:26;;;;;;;16.65;12.85;;;3.50;99.90;;;;;;5112421;28;20056;-69
2021/12/28 00:02:52;;;;;;;14.75;11.35;;;3.50;99.90;;;;;;5098890;28;20048;-69
2021/12/28 00:05:19;;;;;;;16.52;11.40;;;3.40;99.90;;;;;;5105855;28;20138;-69
2021/12/28 00:07:45;;;;;;;16.35;10.57;;;3.40;99.90;;;;;;5109102;28;20173;-69
2021/12/28 00:10:13;;;;;;;14.90;10.45;;;3.40;99.90;;;;;;5108079;28;20086;-69
2021/12/28 00:12:39;;;;;;;13.68;9.32;;;3.50;99.90;;;;;;5114014;28;20059;-69
2021/12/28 00:15:31;;;;;;;17.73;11.63;;;3.40;99.90;;;;;;5113493;28;20039;-69
2021/12/28 00:17:59;;;;;;;17.08;10.63;;;3.50;99.90;;;;;;5112420;27;20051;-69
2021/12/28 00:20:39;;;;;;;15.52;11.43;;;3.50;99.90;;;;;;5096742;28;20097;-68
2021/12/28 00:23:33;;;;;;;14.98;10.63;;;3.50;99.90;;;;;;5073020;28;20045;-69
2021/12/28 00:25:58;;;;;;;15.70;10.85;;;3.60;99.90;;;;;;5097548;28;20795;-69
2021/12/28 00:28:24;;;;;;;13.48;10.43;;;3.50;99.90;;;;;;5105832;28;20126;-69
2021/12/28 00:30:51;;;;;;;16.20;11.77;;;3.50;99.90;;;;;;5113734;28;20039;-69
2021/12/28 00:33:18;;;;;;;17.10;11.48;;;3.50;99.90;;;;;;5112489;28;20048;-69
2021/12/28 00:35:44;;;;;;;17.85;12.52;;;3.50;99.90;;;;;;5105811;28;20044;-69
2021/12/28 00:38:18;;;;;;;14.38;10.98;;;3.60;99.90;;;;;;5094960;28;20044;-68
2021/12/28 00:40:45;;;;;;;20.52;11.27;;;3.60;99.90;;;;;;5100100;28;20081;-69
2021/12/28 00:43:10;;;;;;;14.80;9.82;;;3.50;99.90;;;;;;5104668;28;20123;-69
2021/12/28 00:45:36;;;;;;;14.23;10.02;;;3.50;99.90;;;;;;5103427;28;20105;-69
2021/12/28 00:48:02;;;;;;;16.77;11.20;;;3.60;99.90;;;;;;5100205;28;20486;-69
2021/12/28 00:50:28;;;;;;;17.30;11.18;;;3.60;99.90;;;;;;5107883;28;20508;-69
2021/12/28 00:52:57;;;;;;;16.73;11.38;;;3.60;99.90;;;;;;5112394;28;20044;-69
2021/12/28 00:55:24;;;;;;;21.35;12.77;;;3.60;99.90;;;;;;5113501;28;20108;-69
2021/12/28 00:57:50;;;;;;;17.02;11.25;;;3.60;99.90;;;;;;5112384;28;20052;-69
2021/12/28 01:00:19;;;;;;;18.08;12.15;;;3.70;99.90;;;;;;5112081;28;20050;-69
2021/12/28 01:02:45;;;;;;;17.55;11.10;;;3.60;99.90;;;;;;5113242;28;20048;-69
2021/12/28 01:05:12;;;;;;;19.75;11.95;;;3.60;99.90;;;;;;5111168;28;20478;-69
2021/12/28 01:07:38;;;;;;;18.05;12.60;;;3.60;99.90;;;;;;5111742;28;20047;-69
2021/12/28 01:10:07;;;;;;;19.55;12.38;;;3.70;99.90;;;;;;5112413;28;20051;-69
2021/12/28 01:12:33;;;;;;;18.90;12.75;;;3.60;99.90;;;;;;5110577;28;20090;-69
2021/12/28 01:14:59;;;;;;;18.02;12.35;;;3.60;99.90;;;;;;5113289;27;20071;-69
2021/12/28 01:17:24;;;;;;;22.52;12.68;;;3.60;99.90;;;;;;5113148;28;20093;-69
2021/12/28 01:19:50;;;;;;;17.88;11.60;;;3.80;99.90;;;;;;5107341;28;20079;-69
2021/12/28 01:22:16;;;;;;;23.40;12.52;;;3.70;99.90;;;;;;5105357;28;20474;-68
2021/12/28 01:24:41;;;;;;;19.52;12.80;;;3.70;99.90;;;;;;5096378;28;20048;-69
2021/12/28 01:27:07;;;;;;;19.45;12.85;;;3.70;99.90;;;;;;5094657;28;20048;-69
2021/12/28 01:29:33;;;;;;;24.42;13.23;;;3.70;99.90;;;;;;5112497;28;20855;-70
2021/12/28 01:31:59;;;;;;;23.58;11.88;;;3.80;99.90;;;;;;5112032;28;20039;-69
2021/12/28 01:34:25;;;;;;;28.90;15.63;;;3.90;99.90;;;;;;5112720;27;20107;-69
2021/12/28 01:36:50;;;;;;;23.75;13.95;;;3.90;99.90;;;;;;5112360;28;20051;-69
2021/12/28 01:39:16;;;;;;;27.05;13.88;;;3.90;99.90;;;;;;5108739;28;20047;-69
2021/12/28 01:41:42;;;;;;;30.80;15.95;;;3.90;99.90;;;;;;5101156;28;20040;-69
2021/12/28 01:44:11;;;;;;;30.80;15.25;;;3.90;99.90;;;;;;5095935;28;20139;-69
2021/12/28 01:46:37;;;;;;;38.20;15.73;;;3.90;99.90;;;;;;5104616;28;20048;-69
2021/12/28 01:49:08;;;;;;;32.45;16.50;;;3.90;99.90;;;;;;5090685;28;20044;-69
2021/12/28 01:51:34;;;;;;;42.28;18.58;;;4.00;99.90;;;;;;5106271;28;20075;-69
2021/12/28 01:54:02;;;;;;;43.58;18.75;;;4.10;99.90;;;;;;5107110;28;20058;-68
2021/12/28 01:56:40;;;;;;;42.58;18.15;;;4.00;99.90;;;;;;5102282;28;20138;-69
2021/12/28 01:59:10;;;;;;;51.88;18.75;;;4.00;99.90;;;;;;5100348;28;20050;-69
2021/12/28 02:01:37;;;;;;;50.65;18.45;;;4.00;99.90;;;;;;5102605;28;20047;-69
2021/12/28 02:04:12;;;;;;;46.63;19.08;;;4.10;99.90;;;;;;5097401;28;20493;-69
2021/12/28 02:06:38;;;;;;;59.28;19.02;;;4.10;99.90;;;;;;5110823;28;20402;-69
2021/12/28 02:09:04;;;;;;;64.30;20.95;;;4.10;99.90;;;;;;5111166;28;20044;-68
2021/12/28 02:11:29;;;;;;;75.85;20.75;;;4.20;99.90;;;;;;5110684;28;20101;-69
2021/12/28 02:13:55;;;;;;;78.20;23.98;;;4.20;99.90;;;;;;5111252;28;20557;-69
2021/12/28 02:16:21;;;;;;;83.70;24.95;;;4.30;99.90;;;;;;5110635;28;20479;-69
2021/12/28 02:18:46;;;;;;;93.40;24.48;;;4.30;99.90;;;;;;5110066;28;20079;-69
2021/12/28 02:21:13;;;;;;;118.97;26.88;;;4.30;99.90;;;;;;5111097;28;20047;-69
2021/12/28 02:23:39;;;;;;;125.22;25.75;;;4.40;99.90;;;;;;5111435;28;20051;-69
2021/12/28 02:26:05;;;;;;;98.93;26.67;;;4.40;99.90;;;;;;5127579;27;20050;-69
2021/12/28 02:28:31;;;;;;;106.93;28.05;;;4.40;99.90;;;;;;5109701;28;20051;-70
2021/12/28 02:30:58;;;;;;;155.57;30.58;;;4.40;99.90;;;;;;5111924;28;20040;-69
2021/12/28 02:33:24;;;;;;;144.85;26.02;;;4.50;99.90;;;;;;5111646;28;20055;-69
2021/12/28 02:35:55;;;;;;;193.27;32.35;;;3.70;99.90;;;;;;5109486;28;20435;-69
2021/12/28 02:38:21;;;;;;;186.10;32.40;;;4.50;99.90;;;;;;5110226;28;20498;-69
2021/12/28 02:40:47;;;;;;;270.25;37.65;;;4.50;99.90;;;;;;5106148;28;20046;-69
2021/12/28 02:43:15;;;;;;;184.55;32.15;;;4.50;99.90;;;;;;5093017;28;20849;-68
2021/12/28 02:45:54;;;;;;;152.75;30.48;;;4.50;99.90;;;;;;5098728;28;20048;-69
2021/12/28 02:48:21;;;;;;;126.28;26.85;;;4.50;99.90;;;;;;5098359;28;20048;-69
2021/12/28 02:50:49;;;;;;;155.95;28.58;;;4.60;99.90;;;;;;5102177;28;20126;-69
2021/12/28 02:53:17;;;;;;;208.57;31.40;;;4.60;99.90;;;;;;5094623;28;20035;-69
2021/12/28 02:55:44;;;;;;;164.80;31.40;;;4.70;99.90;;;;;;5111127;28;20058;-69
2021/12/28 02:58:13;;;;;;;199.57;32.92;;;4.60;99.90;;;;;;5108977;28;20054;-69
2021/12/28 03:00:43;;;;;;;214.55;35.97;;;4.70;99.90;;;;;;5111062;28;20047;-70
2021/12/28 03:03:17;;;;;;;252.15;40.15;;;4.70;99.90;;;;;;5108860;28;20059;-69
2021/12/28 03:05:46;;;;;;;259.95;42.05;;;4.70;99.90;;;;;;5111167;28;20066;-69
2021/12/28 03:08:12;;;;;;;211.75;37.53;;;4.80;99.90;;;;;;5109812;28;20054;-69
2021/12/28 03:10:40;;;;;;;268.60;41.72;;;4.70;99.90;;;;;;5108886;28;20051;-69
2021/12/28 03:13:07;;;;;;;187.82;35.33;;;4.80;99.90;;;;;;5111217;28;20050;-69
2021/12/28 03:15:33;;;;;;;189.48;32.13;;;4.80;99.90;;;;;;5110371;28;20043;-69
2021/12/28 03:17:59;;;;;;;224.88;35.53;;;4.80;99.90;;;;;;5108789;28;20405;-69
2021/12/28 03:20:24;;;;;;;219.80;38.10;;;4.90;99.90;;;;;;5111138;28;20185;-69
2021/12/28 03:22:50;;;;;;;188.07;33.17;;;4.90;99.90;;;;;;5109388;28;20051;-69
2021/12/28 03:25:16;;;;;;;209.55;35.00;;;4.80;99.90;;;;;;5109044;28;20067;-69
2021/12/28 03:27:43;;;;;;;136.52;29.10;;;4.80;99.90;;;;;;5110728;28;20067;-69
2021/12/28 03:30:12;;;;;;;216.75;33.65;;;5.00;99.90;;;;;;5109530;28;20054;-69
2021/12/28 03:32:38;;;;;;;222.57;38.17;;;4.90;99.90;;;;;;5110095;28;20101;-69
2021/12/28 03:35:06;;;;;;;258.42;40.97;;;5.00;99.90;;;;;;5109859;28;20538;-69
2021/12/28 03:37:33;;;;;;;181.40;35.95;;;5.00;99.90;;;;;;5110768;28;20422;-69
2021/12/28 03:39:59;;;;;;;162.55;31.45;;;5.10;99.90;;;;;;5110121;28;20055;-69
2021/12/28 03:42:25;;;;;;;185.55;35.47;;;5.10;99.90;;;;;;5110906;28;20044;-69
2021/12/28 03:44:51;;;;;;;136.82;30.48;;;5.10;99.90;;;;;;5108267;28;20138;-69
2021/12/28 03:47:17;;;;;;;230.75;34.80;;;5.10;99.90;;;;;;5108632;28;20593;-69
2021/12/28 03:49:42;;;;;;;201.85;35.63;;;5.20;99.90;;;;;;5110691;28;20145;-69
2021/12/28 03:52:08;;;;;;;143.63;28.02;;;5.10;99.90;;;;;;5109342;28;20130;-69
2021/12/28 03:54:34;;;;;;;157.35;31.38;;;5.10;99.90;;;;;;5109821;28;20040;-69
2021/12/28 03:57:01;;;;;;;123.82;31.13;;;5.20;99.90;;;;;;5110740;28;20417;-69
2021/12/28 03:59:27;;;;;;;137.80;31.45;;;5.20;99.90;;;;;;5108428;28;20047;-69
2021/12/28 04:01:53;;;;;;;183.70;32.42;;;5.10;99.90;;;;;;5110792;28;20371;-69
2021/12/28 04:04:19;;;;;;;136.00;30.88;;;5.20;99.90;;;;;;5113110;28;20051;-69
2021/12/28 04:06:44;;;;;;;127.63;29.27;;;5.20;99.90;;;;;;5113577;28;20044;-69
2021/12/28 04:09:12;;;;;;;128.40;25.50;;;5.30;99.90;;;;;;5130329;27;20406;-69
2021/12/28 04:11:39;;;;;;;139.13;26.45;;;5.20;99.90;;;;;;5114006;28;20686;-69
2021/12/28 04:14:07;;;;;;;114.07;26.40;;;5.20;99.90;;;;;;5113468;28;20482;-69
2021/12/28 04:16:34;;;;;;;114.15;25.33;;;5.20;99.90;;;;;;5112670;28;20048;-69
2021/12/28 04:19:03;;;;;;;112.20;24.38;;;5.10;99.90;;;;;;5113884;28;20448;-69
2021/12/28 04:21:30;;;;;;;133.10;31.42;;;5.10;99.90;;;;;;5111801;28;20409;-70
2021/12/28 04:23:56;;;;;;;88.28;23.67;;;5.20;99.90;;;;;;5113997;28;20047;-69
2021/12/28 04:26:24;;;;;;;156.60;29.98;;;5.20;99.90;;;;;;5112739;28;20049;-69
2021/12/28 04:28:50;;;;;;;129.88;31.67;;;5.20;99.90;;;;;;5111592;28;20051;-69
2021/12/28 04:31:15;;;;;;;160.68;30.75;;;5.20;99.90;;;;;;5112668;28;20390;-69
2021/12/28 04:33:42;;;;;;;153.20;30.65;;;5.20;99.90;;;;;;5113673;28;20051;-69
2021/12/28 04:36:09;;;;;;;102.75;29.00;;;5.30;99.90;;;;;;5112132;28;20043;-69
2021/12/28 04:38:36;;;;;;;90.85;25.55;;;5.30;99.90;;;;;;5113431;28;20040;-69
2021/12/28 04:41:02;;;;;;;128.30;31.67;;;5.30;99.90;;;;;;5112347;28;20047;-69
2021/12/28 04:43:29;;;;;;;198.40;37.38;;;5.30;99.90;;;;;;5113106;28;20039;-69
2021/12/28 04:45:54;;;;;;;160.55;32.30;;;5.30;99.90;;;;;;5112633;28;20055;-69
2021/12/28 04:48:20;;;;;;;127.07;26.95;;;5.40;99.90;;;;;;5113666;28;20097;-69
2021/12/28 04:50:46;;;;;;;133.23;29.90;;;5.30;99.90;;;;;;5128231;27;20436;-69
2021/12/28 04:53:12;;;;;;;193.77;34.08;;;5.30;99.90;;;;;;5113591;28;20051;-69
2021/12/28 04:55:42;;;;;;;140.95;30.13;;;5.30;99.90;;;;;;5112265;28;20069;-69
2021/12/28 04:58:08;;;;;;;96.57;25.10;;;5.40;99.90;;;;;;5129165;27;20047;-69
2021/12/28 05:00:35;;;;;;;154.40;31.70;;;5.40;99.90;;;;;;5113149;28;20060;-69
2021/12/28 05:03:01;;;;;;;156.52;34.80;;;5.40;99.90;;;;;;5111323;28;20055;-69
2021/12/28 05:05:27;;;;;;;109.72;27.40;;;5.40;99.90;;;;;;5113310;27;20122;-69
2021/12/28 05:07:53;;;;;;;195.75;36.80;;;5.50;99.90;;;;;;5110946;28;20118;-69
2021/12/28 05:10:19;;;;;;;129.25;29.95;;;5.50;99.90;;;;;;5104517;28;20065;-69
2021/12/28 05:12:45;;;;;;;129.05;30.38;;;5.50;99.90;;;;;;5096281;28;20431;-69
2021/12/28 05:15:11;;;;;;;184.30;35.85;;;5.50;99.90;;;;;;5111579;28;20132;-69
2021/12/28 05:17:37;;;;;;;141.52;34.00;;;5.60;99.90;;;;;;5112046;28;20172;-69
2021/12/28 05:20:04;;;;;;;112.10;30.10;;;5.50;99.90;;;;;;5112994;28;20090;-69
2021/12/28 05:22:30;;;;;;;124.63;31.20;;;5.60;99.90;;;;;;5104928;28;20124;-69
2021/12/28 05:24:55;;;;;;;121.80;27.45;;;5.60;99.90;;;;;;5101612;28;20073;-69
2021/12/28 05:27:21;;;;;;;90.00;27.10;;;5.60;99.90;;;;;;5103143;28;20048;-69
2021/12/28 05:29:47;;;;;;;102.28;31.25;;;5.50;99.90;;;;;;5092115;28;20040;-69
2021/12/28 05:32:12;;;;;;;320.48;48.85;;;5.60;99.90;;;;;;5090519;28;20050;-69
2021/12/28 05:34:39;;;;;;;110.07;31.20;;;5.60;99.90;;;;;;5091983;28;20534;-69
2021/12/28 05:37:04;;;;;;;108.47;32.42;;;5.50;99.90;;;;;;5090700;28;20048;-69
2021/12/28 05:39:30;;;;;;;71.65;28.52;;;5.60;99.90;;;;;;5090144;28;20406;-69
2021/12/28 05:41:56;;;;;;;82.28;25.98;;;5.60;99.90;;;;;;5092273;28;20050;-69
2021/12/28 05:44:23;;;;;;;90.18;29.35;;;5.60;99.90;;;;;;5092276;28;20178;-69
2021/12/28 05:46:49;;;;;;;83.30;30.48;;;5.60;99.90;;;;;;5089750;28;20202;-69
2021/12/28 05:49:15;;;;;;;87.60;31.42;;;5.70;99.90;;;;;;5091923;28;20126;-69
2021/12/28 05:51:41;;;;;;;79.68;28.13;;;5.60;99.90;;;;;;5091663;28;20051;-69
2021/12/28 05:54:06;;;;;;;84.47;30.85;;;5.70;99.90;;;;;;5090997;28;20141;-69
2021/12/28 05:56:32;;;;;;;85.22;29.17;;;5.60;99.90;;;;;;5090466;28;20044;-69
2021/12/28 05:58:58;;;;;;;81.32;31.33;;;5.60;99.90;;;;;;5095948;28;20054;-69
2021/12/28 06:01:23;;;;;;;73.70;28.25;;;5.50;99.90;;;;;;5094344;28;20434;-69
2021/12/28 06:03:49;;;;;;;103.88;32.70;;;5.60;99.90;;;;;;5091516;28;20394;-69
2021/12/28 06:06:15;;;;;;;73.57;25.38;;;5.40;99.90;;;;;;5089667;28;20105;-69
2021/12/28 06:08:40;;;;;;;60.42;26.50;;;5.50;99.90;;;;;;5097710;28;20130;-69
2021/12/28 06:11:11;;;;;;;71.13;28.52;;;5.40;99.90;;;;;;5110635;28;20039;-68
2021/12/28 06:13:37;;;;;;;57.28;25.63;;;5.30;99.90;;;;;;5109875;28;20059;-69
2021/12/28 06:16:02;;;;;;;68.63;25.15;;;5.30;99.90;;;;;;5112003;28;20536;-69
2021/12/28 06:18:28;;;;;;;65.45;26.02;;;5.40;99.90;;;;;;5110268;28;20513;-69
2021/12/28 06:20:54;;;;;;;67.75;24.42;;;5.30;99.90;;;;;;5111008;28;20044;-70
2021/12/28 06:23:19;;;;;;;58.63;22.25;;;5.30;99.90;;;;;;5127560;27;20136;-69
2021/12/28 06:25:45;;;;;;;66.35;24.27;;;5.30;99.90;;;;;;5111227;28;20047;-69
2021/12/28 06:28:10;;;;;;;63.47;26.80;;;5.30;99.90;;;;;;5109584;28;20062;-69
2021/12/28 06:30:36;;;;;;;55.38;24.27;;;5.20;99.90;;;;;;5110385;28;20138;-69
2021/12/28 06:33:02;;;;;;;63.58;21.50;;;5.10;99.90;;;;;;5097691;28;20047;-69
2021/12/28 06:35:28;;;;;;;51.22;22.13;;;5.20;99.90;;;;;;5093967;28;20090;-69
2021/12/28 06:37:53;;;;;;;59.15;23.52;;;5.10;99.90;;;;;;5096084;28;20087;-69
2021/12/28 06:40:19;;;;;;;48.83;22.10;;;5.00;99.90;;;;;;5097540;28;20043;-69
2021/12/28 06:42:45;;;;;;;45.28;18.40;;;5.00;99.90;;;;;;5095507;28;20040;-69
2021/12/28 06:45:10;;;;;;;48.03;22.58;;;5.00;99.90;;;;;;5103487;28;20043;-69
2021/12/28 06:47:37;;;;;;;52.78;22.42;;;5.00;99.90;;;;;;5109696;28;20047;-69
2021/12/28 06:50:05;;;;;;;52.60;21.70;;;5.00;99.90;;;;;;5104504;28;20512;-69
2021/12/28 06:52:31;;;;;;;61.60;24.55;;;4.90;99.90;;;;;;5094442;28;20047;-69
2021/12/28 06:54:56;;;;;;;49.55;21.63;;;5.00;99.90;;;;;;5097346;28;20050;-69
2021/12/28 06:57:22;;;;;;;63.28;24.52;;;5.00;99.90;;;;;;5090153;28;20106;-69
2021/12/28 06:59:48;;;;;;;51.95;21.85;;;4.90;99.90;;;;;;5097007;28;20055;-70
2021/12/28 07:02:15;;;;;;;54.10;21.33;;;4.90;99.90;;;;;;5109340;28;20087;-69
2021/12/28 07:04:41;;;;;;;46.75;21.02;;;4.90;99.90;;;;;;5111003;28;20051;-69
2021/12/28 07:07:07;;;;;;;50.30;18.88;;;4.90;99.90;;;;;;5100354;28;20090;-69
2021/12/28 07:09:34;;;;;;;46.22;18.13;;;4.80;99.90;;;;;;5090807;28;20054;-69
2021/12/28 07:12:00;;;;;;;63.85;21.08;;;4.70;99.90;;;;;;5101612;28;20044;-69
2021/12/28 07:14:28;;;;;;;39.58;18.73;;;4.70;99.90;;;;;;5098021;28;20048;-69
2021/12/28 07:16:57;;;;;;;44.78;19.20;;;4.60;99.90;;;;;;5090063;28;20052;-69
2021/12/28 07:19:23;;;;;;;39.97;17.35;;;4.60;99.90;;;;;;5091430;28;20052;-69
2021/12/28 07:21:48;;;;;;;31.65;14.68;;;4.60;99.90;;;;;;5111117;28;20051;-69
2021/12/28 07:24:14;;;;;;;43.35;18.65;;;4.60;99.90;;;;;;5110395;28;20043;-69
2021/12/28 07:26:40;;;;;;;40.65;17.90;;;4.50;99.90;;;;;;5110829;28;20036;-69
2021/12/28 07:29:06;;;;;;;121.95;25.52;;;4.50;99.90;;;;;;5111118;28;20032;-69
2021/12/28 07:31:32;;;;;;;36.70;17.63;;;4.50;99.90;;;;;;5109959;28;20112;-69
2021/12/28 07:33:58;;;;;;;39.55;18.35;;;4.40;99.90;;;;;;5110868;28;20046;-69
2021/12/28 07:36:23;;;;;;;39.30;16.65;;;4.40;99.90;;;;;;5110768;28;20397;-69
2021/12/28 07:38:49;;;;;;;35.90;16.52;;;4.50;99.90;;;;;;5113890;28;20044;-69
2021/12/28 07:41:15;;;;;;;37.40;17.27;;;4.40;99.90;;;;;;5114993;28;20038;-69
2021/12/28 07:43:40;;;;;;;39.58;17.67;;;4.40;99.90;;;;;;5114541;28;20043;-69
2021/12/28 07:46:06;;;;;;;35.47;16.95;;;4.50;99.90;;;;;;5100815;28;20047;-69
2021/12/28 07:48:32;;;;;;;37.30;17.75;;;4.40;99.90;;;;;;5096893;28;20048;-69
2021/12/28 07:50:58;;;;;;;47.45;19.50;;;4.50;99.90;;;;;;5112447;28;20146;-69
2021/12/28 07:53:23;;;;;;;39.20;15.38;;;4.50;99.90;;;;;;5098042;28;20043;-69
2021/12/28 07:55:49;;;;;;;35.38;15.05;;;4.50;99.90;;;;;;5113236;28;20482;-69
2021/12/28 07:58:15;;;;;;;40.85;18.40;;;4.60;99.90;;;;;;5100269;28;20721;-69
2021/12/28 08:00:40;;;;;;;40.42;17.98;;;4.60;99.90;;;;;;5088379;28;20051;-69
2021/12/28 08:03:06;;;;;;;32.20;14.68;;;4.50;99.90;;;;;;5098963;28;20440;-69
2021/12/28 08:05:33;;;;;;;34.55;16.42;;;4.50;99.90;;;;;;5097429;28;20044;-69
2021/12/28 08:08:02;;;;;;;48.88;16.02;;;4.50;99.90;;;;;;5102724;28;20064;-69
2021/12/28 08:10:29;;;;;;;27.58;14.35;;;4.50;99.90;;;;;;5101656;28;20043;-69
2021/12/28 08:12:56;;;;;;;37.05;15.68;;;4.70;99.90;;;;;;5113654;28;20043;-69
2021/12/28 08:15:23;;;;;;;33.55;14.75;;;4.60;99.90;;;;;;5105969;28;20040;-69
2021/12/28 08:17:49;;;;;;;32.17;14.00;;;4.60;99.90;;;;;;5089314;28;20054;-69
2021/12/28 08:20:16;;;;;;;32.38;14.38;;;4.70;99.90;;;;;;5103130;28;20040;-69
2021/12/28 08:22:43;;;;;;;30.83;11.43;;;4.70;99.90;;;;;;5107318;28;20058;-69
2021/12/28 08:25:13;;;;;;;29.75;14.40;;;4.80;99.90;;;;;;5097751;28;20044;-69
2021/12/28 08:27:39;;;;;;;27.85;12.80;;;4.80;99.90;;;;;;5110696;28;20052;-69
2021/12/28 08:30:07;;;;;;;34.67;13.93;;;5.00;99.90;;;;;;5109272;28;20588;-69
2021/12/28 08:32:33;;;;;;;31.50;14.23;;;5.00;99.90;;;;;;5110979;27;20093;-70
2021/12/28 08:34:59;;;;;;;37.85;15.48;;;5.00;99.90;;;;;;5099723;28;20052;-70
2021/12/28 08:37:25;;;;;;;31.38;13.15;;;5.10;99.90;;;;;;5110525;28;20410;-69
2021/12/28 08:39:50;;;;;;;29.10;13.10;;;5.20;99.90;;;;;;5107136;28;20082;-69
2021/12/28 08:42:17;;;;;;;32.13;12.48;;;5.20;99.90;;;;;;5092572;28;20040;-69
2021/12/28 08:44:42;;;;;;;32.97;13.18;;;5.20;99.90;;;;;;5093036;28;20063;-69
2021/12/28 08:47:08;;;;;;;26.88;11.18;;;5.40;99.90;;;;;;5104239;28;20052;-70
2021/12/28 08:49:34;;;;;;;36.53;12.48;;;5.40;99.90;;;;;;5098649;28;20043;-69
2021/12/28 08:51:59;;;;;;;24.15;12.05;;;5.50;99.90;;;;;;5093301;28;20132;-70
2021/12/28 08:54:25;;;;;;;23.63;10.98;;;5.40;99.90;;;;;;5091976;28;20051;-69
2021/12/28 08:56:51;;;;;;;29.25;11.88;;;5.50;99.90;;;;;;5109490;28;20143;-69
2021/12/28 08:59:18;;;;;;;24.27;11.38;;;5.40;99.90;;;;;;5093448;28;20054;-70
2021/12/28 09:01:45;;;;;;;27.25;11.82;;;5.50;99.90;;;;;;5092684;28;20047;-70
2021/12/28 09:04:10;;;;;;;25.27;11.10;;;5.60;99.90;;;;;;5091668;28;20043;-69
2021/12/28 09:06:36;;;;;;;29.60;11.77;;;5.60;99.90;;;;;;5091181;28;20059;-70
2021/12/28 09:09:01;;;;;;;25.75;10.98;;;5.60;99.90;;;;;;5107243;28;20061;-69
2021/12/28 09:11:27;;;;;;;29.33;12.23;;;5.60;99.90;;;;;;5112020;28;20130;-70
2021/12/28 09:13:53;;;;;;;24.65;12.00;;;5.80;99.90;;;;;;5095550;28;20051;-69
2021/12/28 09:16:19;;;;;;;27.00;12.77;;;5.90;99.90;;;;;;5103458;28;20537;-69
2021/12/28 09:18:45;;;;;;;22.23;9.80;;;5.80;99.90;;;;;;5093421;28;20060;-72
2021/12/28 09:21:11;;;;;;;26.40;9.80;;;5.90;99.90;;;;;;5097787;28;20043;-76
2021/12/28 09:23:38;;;;;;;24.73;10.35;;;6.00;99.90;;;;;;5111487;28;20091;-72
2021/12/28 09:26:04;;;;;;;27.30;12.05;;;5.90;99.90;;;;;;5112361;28;20044;-71
2021/12/28 09:28:30;;;;;;;32.45;11.52;;;6.10;99.90;;;;;;5112185;28;20494;-69
2021/12/28 09:30:56;;;;;;;25.38;10.68;;;6.10;99.90;;;;;;5091411;28;20072;-69
2021/12/28 09:33:21;;;;;;;30.20;11.15;;;6.30;99.90;;;;;;5092258;28;20091;-68
2021/12/28 09:35:47;;;;;;;23.90;9.93;;;6.40;99.90;;;;;;5091621;28;20804;-71
2021/12/28 09:38:13;;;;;;;17.50;10.13;;;6.40;99.90;;;;;;5111399;28;20047;-70
2021/12/28 09:40:40;;;;;;;22.52;10.32;;;6.40;99.90;;;;;;5108923;28;20093;-70
2021/12/28 09:43:07;;;;;;;19.98;9.45;;;6.40;99.90;;;;;;5098381;28;20050;-70
2021/12/28 09:45:34;;;;;;;23.05;9.68;;;6.40;99.90;;;;;;5103707;28;20048;-70
2021/12/28 09:48:01;;;;;;;26.90;10.05;;;6.30;99.90;;;;;;5106042;28;20082;-71
2021/12/28 09:50:27;;;;;;;21.75;9.30;;;6.40;99.90;;;;;;5108800;28;20075;-70
2021/12/28 09:52:54;;;;;;;21.33;8.63;;;6.30;99.90;;;;;;5109879;28;20055;-70
2021/12/28 09:55:22;;;;;;;20.42;8.55;;;6.40;99.90;;;;;;5111810;28;20073;-69
2021/12/28 09:57:50;;;;;;;20.63;8.75;;;6.30;99.90;;;;;;5121661;27;20105;-68
2021/12/28 10:00:18;;;;;;;16.60;7.95;;;6.30;99.90;;;;;;5091735;28;20050;-68
2021/12/28 10:02:44;;;;;;;22.23;9.55;;;6.30;99.90;;;;;;5104455;28;20085;-68
2021/12/28 10:05:12;;;;;;;21.30;8.85;;;6.30;99.90;;;;;;5098933;28;20458;-69
2021/12/28 10:07:46;;;;;;;18.73;7.55;;;6.50;99.90;;;;;;5103766;28;20051;-70
2021/12/28 10:10:12;;;;;;;28.25;8.02;;;6.40;99.90;;;;;;5098494;28;20040;-69
2021/12/28 10:12:44;;;;;;;19.95;8.73;;;6.50;99.90;;;;;;5089310;28;20047;-70
2021/12/28 10:15:16;;;;;;;17.80;7.93;;;6.50;99.90;;;;;;5092383;28;20048;-69
2021/12/28 10:17:45;;;;;;;25.08;7.95;;;6.50;99.90;;;;;;5070755;28;20467;-69
2021/12/28 10:20:26;;;;;;;16.70;7.40;;;6.60;99.90;;;;;;5071252;28;20411;-69
2021/12/28 10:22:58;;;;;;;20.77;8.20;;;6.50;99.90;;;;;;5075184;28;20056;-69
2021/12/28 10:25:27;;;;;;;13.57;6.13;;;6.60;99.90;;;;;;5090196;28;20062;-69
2021/12/28 10:27:58;;;;;;;13.45;7.57;;;6.50;99.90;;;;;;5083369;28;20125;-70
2021/12/28 10:30:27;;;;;;;20.90;7.50;;;6.50;99.90;;;;;;5089840;28;20050;-67
2021/12/28 10:32:56;;;;;;;17.45;8.80;;;6.60;99.90;;;;;;5084026;28;20484;-67
2021/12/28 10:35:30;;;;;;;22.20;8.10;;;6.70;99.90;;;;;;5088974;28;20129;-68
2021/12/28 10:38:00;;;;;;;22.52;8.88;;;6.70;99.90;;;;;;5088532;28;20052;-69
2021/12/28 10:40:30;;;;;;;16.60;7.82;;;6.70;99.90;;;;;;5088308;28;20575;-68
2021/12/28 10:43:10;;;;;;;17.67;7.40;;;6.60;99.90;;;;;;5084875;28;20383;-68
2021/12/28 10:45:41;;;;;;;16.52;6.70;;;6.70;99.90;;;;;;5073502;28;20054;-68
2021/12/28 10:48:17;;;;;;;17.23;6.75;;;6.60;99.90;;;;;;5090285;28;20051;-68
2021/12/28 10:51:14;;;;;;;13.85;7.80;;;6.80;99.90;;;;;;5090792;28;20116;-68
2021/12/28 10:54:00;;;;;;;17.10;7.45;;;6.80;99.90;;;;;;5084481;28;20550;-68
2021/12/28 10:56:27;;;;;;;22.23;8.43;;;6.80;99.90;;;;;;5087177;28;20505;-68
2021/12/28 10:58:54;;;;;;;20.42;6.65;;;6.80;99.90;;;;;;5088523;28;20121;-68
2021/12/28 11:01:23;;;;;;;22.35;8.30;;;6.60;99.90;;;;;;5090725;28;20040;-68
2021/12/28 11:03:53;;;;;;;21.05;7.40;;;6.60;99.90;;;;;;5108125;28;20048;-68
2021/12/28 11:06:52;;;;;;;16.38;8.10;;;6.60;99.90;;;;;;5110138;28;20056;-68
2021/12/28 11:09:24;;;;;;;14.20;7.95;;;6.70;99.90;;;;;;5061736;28;20060;-68
2021/12/28 11:11:52;;;;;;;19.42;8.38;;;6.60;99.90;;;;;;5089933;28;20079;-68
2021/12/28 11:14:20;;;;;;;19.50;6.93;;;6.70;99.90;;;;;;5089537;28;20048;-68
2021/12/28 11:16:51;;;;;;;14.30;6.97;;;6.70;99.90;;;;;;5109813;28;20058;-68
2021/12/28 11:19:24;;;;;;;19.70;7.75;;;6.70;99.90;;;;;;5090106;28;20134;-68
2021/12/28 11:21:55;;;;;;;18.77;7.72;;;6.60;99.90;;;;;;5075107;28;20152;-68
2021/12/28 11:24:21;;;;;;;16.02;7.57;;;6.70;99.90;;;;;;5094877;28;20075;-67
2021/12/28 11:26:49;;;;;;;9.70;5.20;;;6.70;99.90;;;;;;5093401;28;20075;-67
2021/12/28 11:29:21;;;;;;;14.63;6.75;;;6.70;99.90;;;;;;5092907;28;20089;-71
2021/12/28 11:31:53;;;;;;;17.45;6.63;;;6.60;99.90;;;;;;5091624;28;20447;-70
2021/12/28 11:34:35;;;;;;;16.88;8.18;;;6.80;99.90;;;;;;5093664;28;20044;-69
2021/12/28 11:37:03;;;;;;;11.25;6.10;;;6.80;99.90;;;;;;5093651;28;20119;-69
2021/12/28 11:39:43;;;;;;;13.70;6.93;;;6.80;99.90;;;;;;5089286;28;20044;-69
2021/12/28 11:42:10;;;;;;;11.48;6.90;;;6.80;99.90;;;;;;5093346;28;20043;-69
2021/12/28 11:44:36;;;;;;;16.10;7.32;;;6.70;99.90;;;;;;5093689;28;20489;-69
2021/12/28 11:47:06;;;;;;;10.73;6.30;;;6.80;99.90;;;;;;5079749;28;20510;-68
2021/12/28 11:49:32;;;;;;;13.73;6.43;;;6.80;99.90;;;;;;5086720;28;20027;-69
2021/12/28 11:52:02;;;;;;;10.38;6.35;;;6.70;99.90;;;;;;5092329;28;20089;-69
2021/12/28 11:54:30;;;;;;;9.60;5.53;;;6.70;99.90;;;;;;5091535;28;20056;-68
2021/12/28 11:57:00;;;;;;;11.38;6.32;;;6.80;99.90;;;;;;5093202;28;20040;-68
2021/12/28 11:59:30;;;;;;;12.98;6.45;;;6.80;99.90;;;;;;5089135;28;20051;-69
2021/12/28 12:02:04;;;;;;;12.77;7.18;;;6.90;99.90;;;;;;5101851;28;20036;-67
2021/12/28 12:04:30;;;;;;;10.40;5.68;;;6.80;99.90;;;;;;5101453;28;20044;-68
2021/12/28 12:06:58;;;;;;;11.90;6.75;;;6.80;99.90;;;;;;5089705;28;20097;-68
2021/12/28 12:09:25;;;;;;;9.52;6.13;;;6.80;99.90;;;;;;5093973;28;20542;-68
2021/12/28 12:12:11;;;;;;;11.60;6.47;;;6.80;99.90;;;;;;5091738;28;20044;-67
2021/12/28 12:14:57;;;;;;;12.18;7.38;;;6.80;99.90;;;;;;5092593;28;20059;-68
2021/12/28 12:17:30;;;;;;;11.77;7.50;;;6.90;99.90;;;;;;5092656;28;20083;-67
2021/12/28 12:20:03;;;;;;;7.57;5.65;;;6.80;99.90;;;;;;5091651;28;20052;-68
2021/12/28 12:22:33;;;;;;;13.43;7.13;;;6.80;99.90;;;;;;5091642;28;20055;-69
2021/12/28 12:25:10;;;;;;;13.55;7.47;;;6.90;99.90;;;;;;5092399;28;20130;-68
2021/12/28 12:27:56;;;;;;;14.43;7.20;;;6.90;99.90;;;;;;5091418;28;20067;-67
2021/12/28 12:30:25;;;;;;;12.60;8.05;;;6.90;99.90;;;;;;5088467;28;20483;-67
2021/12/28 12:33:05;;;;;;;13.63;6.95;;;6.90;99.90;;;;;;5070790;28;20056;-67
2021/12/28 12:35:34;;;;;;;9.60;6.78;;;7.00;99.90;;;;;;5084815;28;20104;-68
2021/12/28 12:38:03;;;;;;;7.00;6.30;;;7.00;99.90;;;;;;5089414;28;20390;-68
2021/12/28 12:40:58;;;;;;;8.35;5.95;;;7.00;99.90;;;;;;5084500;28;20131;-66